Aviation Digital Data Service (ADDS)

Output produced by METARs form (1208 UTC 26 March 2019)
found at http://www.aviationweather.gov/metar/data/
 
KSAC 261139Z 2612/2712 19006KT P6SM SCT004 OVC060 
     TEMPO 2612/2616 3SM BR BKN004 OVC015 
     FM261800 23008KT P6SM VCSH BKN060 
     FM270900 16010KT P6SM -RA OVC050
       
KSAF 261138Z 2612/2712 02007KT P6SM FEW250 
     FM261700 17010KT P6SM BKN250 
     FM262100 19012G18KT P6SM BKN180 
     FM270200 15010KT P6SM VCSH SCT050 BKN100
       
KSAN 261122Z 2612/2718 VRB04KT P6SM FEW010 SCT250 
     FM261900 30010KT P6SM SCT150 BKN250 
     FM270300 VRB04KT P6SM SCT015 BKN200 
     FM270500 VRB04KT P6SM BKN015 
     FM271600 VRB04KT P6SM BKN022
       
KSAT 261134Z 2612/2718 04010KT P6SM FEW060 SCT250
       
KSAV 261132Z 2612/2712 33008KT P6SM OVC006 
     TEMPO 2612/2614 2SM BR OVC003 
     FM261400 36010KT P6SM OVC015 
     FM261900 03012G18KT P6SM VCSH SCT015 OVC025 
     FM262300 05010KT P6SM SCT020 BKN040 
     FM270800 03012KT P6SM FEW050
       
KSBA 261123Z 2612/2712 VRB03KT P6SM BKN200 
     FM261800 17006KT P6SM SCT080 OVC150 
     FM262100 24008KT P6SM SCT060 OVC120 
     FM270300 VRB03KT P6SM FEW025 OVC050 
     FM270800 VRB03KT P6SM BKN025 OVC040
       
KSBD 261122Z 2612/2712 VRB04KT P6SM SCT250 
     FM262100 25010KT P6SM SCT150 BKN250 
     FM270500 25005KT P6SM SCT010 BKN200
       
KSBN 261120Z 2612/2712 04006KT P6SM SKC
       
KSBP 261123Z 2612/2712 VRB03KT P6SM FEW025 OVC200 
     FM262200 28008KT P6SM BKN050 OVC120 
     FM270300 VRB03KT P6SM BKN025 OVC050 
     FM270800 15007KT P6SM BKN015 OVC035 
     PROB30 2708/2712 -SHRA
       
KSBY 261120Z 2612/2712 02013G20KT P6SM BKN060 BKN100 
     FM261400 02014G24KT P6SM SKC 
     FM262300 04007KT P6SM SKC 
     FM270200 00000KT P6SM SKC
       
KSCK 261139Z 2612/2712 32010KT P6SM SCT007 OVC017 
     TEMPO 2612/2616 4SM BR BKN007 
     FM261700 VRB05KT P6SM BKN070 
     FM270900 15008KT P6SM -RA OVC050
       
KSDF 261120Z 2612/2718 02006KT P6SM SKC
       
KSDL 261137Z 2612/2712 VRB03KT P6SM FEW250 
     FM262200 24006KT P6SM BKN250 
     FM270300 VRB03KT P6SM BKN250
       
KSDY 261120Z 2612/2712 VRB06KT P6SM VCFG OVC003 
     FM261400 19007KT P6SM SCT090 
     FM262100 22011KT P6SM SCT220 
     FM271100 28010KT P6SM SCT110
       
KSEA 261132Z 2612/2718 17008KT P6SM SCT015 BKN045 BKN080 
     FM262100 VRB03KT P6SM SCT050 BKN090 
     FM270300 03008KT P6SM SCT250
       
KSEZ 261138Z 2612/2712 04012KT P6SM SCT250 
     FM261500 VRB05KT P6SM SCT250 
     FM262000 18010G18KT P6SM SCT250 
     FM270500 06010KT P6SM SCT250
       
KSFB 261123Z 2612/2712 28005KT P6SM FEW070 
     FM261400 29008KT P6SM SCT040 
     FM262100 02010KT P6SM FEW040 BKN060 
     FM270000 36007KT P6SM FEW060
       
KSFF 261120Z 2612/2712 17005KT P6SM SCT020 BKN080 
     FM261400 22010KT P6SM SCT020 BKN250 
     FM261900 22011G18KT P6SM SCT040 SCT200 
     FM270200 23004KT P6SM FEW200
       
KSFO 261129Z 2612/2718 VRB04KT P6SM FEW010 BKN050 
     FM262000 24011KT P6SM FEW030 BKN050 
     FM270700 15007KT P6SM VCSH SCT040 BKN050 OVC100 
     FM271100 15012KT P6SM -RA BKN025 OVC040 
     FM271600 18008KT P6SM -SHRA BKN030 BKN060
       
KSGF 261120Z 2612/2712 VRB02KT 5SM BR SCT080 
     FM261500 VRB04KT P6SM FEW250 
     FM270300 15012KT P6SM SKC
       
KSGJ 261134Z 2612/2712 26005KT P6SM FEW007 
     FM261300 32010KT P6SM SCT025 SCT250 
     FM261800 01012KT P6SM BKN040 
     FM262100 03017G27KT P6SM SCT020 OVC040 
     FM270000 03017G27KT P6SM VCSH OVC025 
     PROB30 2700/2703 4SM SHRA OVC012 
     FM270300 04018G28KT 4SM SHRA OVC010
       
KSGU 261120Z 2612/2712 16004KT P6SM BKN250 
     FM262000 23008KT P6SM BKN250 
     FM270400 14006KT P6SM SCT250
       
KSHR 261133Z 2612/2712 VRB04KT P6SM BKN200 
     FM261800 12006KT P6SM BKN200 
     FM270000 VRB04KT P6SM BKN200
       
KSHV 261130Z 2612/2712 03006KT P6SM SKC 
     FM261600 02011KT P6SM FEW250 
     FM270000 VRB03KT P6SM SKC
       
KSJC 261129Z 2612/2712 VRB03KT P6SM BKN015 BKN040 
     FM261700 VRB03KT P6SM SCT020 BKN040 
     FM262100 28008KT P6SM VCSH BKN030 BKN050 
     FM270400 14004KT P6SM VCSH SCT030 BKN050 
     FM270800 14012G18KT P6SM -RA BKN025 OVC040
       
KSJT 261135Z 2612/2712 05006KT P6SM FEW250 
     FM261600 11011KT P6SM FEW250
       
TAF KSKA 261100Z 2611/2717 19009KT 9999 FEW060 BKN100 610358 QNH2994INS 
     BECMG 2615/2616 21012G18KT 9999 FEW020 SCT060 BKN200 QNH3001INS 
     BECMG 2622/2623 24008KT 9999 SCT080 QNH3002INS TX11/2700Z TN04/2612Z
       
TAF KSKF 261000Z 2610/2716 05010KT 9999 SCT050 SCT250 QNH3020INS 
     BECMG 2615/2616 08012G18KT 9999 FEW050 SCT250 QNH3018INS 
     BECMG 2623/2700 10006KT 9999 SCT250 QNH3020INS TX26/2621Z TN13/2710Z
       
KSLC 261120Z 2612/2718 13012KT P6SM BKN200 
     FM261800 16012G25KT P6SM BKN200 
     FM262200 30008KT P6SM BKN200 
     FM270200 16008KT P6SM SCT200
       
KSLE 261134Z 2612/2712 14005KT P6SM SCT060 
     FM261700 17003KT P6SM SCT025 BKN045 
     FM262100 34004KT P6SM SCT250 
     FM270700 02005KT P6SM SCT250
       
TAF KSLI 260501Z 2605/2711 VRB06KT 9999 SKC QNH3000INS 
     BECMG 2609/2610 VRB06KT 9000 BR SCT010 QNH3008INS 
     BECMG 2617/2618 22009KT 9999 FEW010 QNH3003INS 
     BECMG 2620/2621 22009KT 9999 SKC QNH2998INS 
     BECMG 2705/2706 VRB06KT 9999 FEW020 QNH3004INS 
     BECMG 2708/2709 VRB06KT 6000 BR BKN010 QNH3003INS TX20/2623Z TN10/2614Z
       
KSLK 261120Z 2612/2712 25008KT P6SM SKC 
     FM261400 31006KT P6SM SKC 
     FM270000 28005KT P6SM SKC
       
KSLN 261120Z 2612/2712 12004KT P6SM SCT250 
     TEMPO 2612/2614 4SM BR 
     FM261400 16006KT P6SM SCT120 
     FM261700 18012KT P6SM SCT120 
     FM261900 17015G21KT P6SM SCT200 
     FM270100 17013KT P6SM SCT150 
     FM270800 17014KT P6SM SCT150 WS020/20045KT
       
KSME 261120Z 2612/2712 03005KT P6SM SKC 
     FM270200 00000KT P6SM SKC
       
KSMF 261139Z 2612/2712 17006KT P6SM SCT020 OVC070 
     TEMPO 2612/2616 4SM BR OVC020 
     FM261800 19008KT P6SM VCSH BKN060 
     FM270900 16010KT P6SM -RA OVC050
       
KSMN 261125Z 2612/2712 VRB03KT P6SM SCT150 
     FM261500 VRB03KT P6SM OVC080 
     FM261800 24006KT P6SM VCSH BKN070 OVC090 
     FM262100 24008KT P6SM -SHRA OVC050
       
KSMO 261123Z 2612/2712 VRB03KT P6SM BKN200 
     FM262000 24008KT P6SM SCT080 OVC150 
     FM270300 VRB03KT P6SM FEW025 OVC060 
     FM270600 VRB03KT P6SM BKN025 OVC050
       
KSMX 261123Z 2612/2712 VRB03KT P6SM FEW025 OVC200 
     FM262200 28008KT P6SM BKN050 OVC120 
     FM270300 VRB03KT P6SM BKN025 OVC050 
     FM271000 15007KT P6SM BKN015 OVC035 
     PROB30 2710/2712 -SHRA
       
KSNA 261122Z 2612/2712 VRB04KT P6SM FEW010 SCT250 
     FM261900 22009KT P6SM SCT150 BKN250 
     FM270300 VRB04KT P6SM SCT015 BKN200 
     FM270600 VRB04KT P6SM BKN015
       
KSNS 261129Z 2612/2712 31004KT P6SM BKN008 OVC015 
     FM261600 VRB03KT P6SM SCT015 BKN040 
     FM262100 31009KT P6SM VCSH BKN040 BKN060 
     FM270400 VRB04KT P6SM VCSH BKN040 BKN060 
     FM271000 12014KT P6SM -RA BKN025 OVC040
       
KSNY 261129Z 2612/2712 22010KT P6SM BKN200 
     FM261800 19015G22KT P6SM BKN200 
     FM270100 23009KT P6SM BKN200
       
KSPS 261130Z 2612/2712 03005KT P6SM FEW100 
     TEMPO 2612/2615 5SM BR 
     FM261700 13010KT P6SM SCT100
       
KSRQ 261137Z 2612/2712 34005KT P6SM SCT008 
     TEMPO 2612/2614 BKN008 
     FM261400 32006KT P6SM SCT025 
     FM261800 30010KT P6SM FEW040 
     FM270200 32006KT P6SM FEW030 
     FM271100 36006KT P6SM SCT010
       
TAF AMD KSSC 261141Z 2611/2713 34006KT 9999 BKN004 BKN020 QNH2989INS 
     TEMPO 2611/2613 BKN006 
     BECMG 2613/2614 02015G25KT 9999 BKN015 OVC020 QNH3005INS 
     BECMG 2618/2619 03012G18KT 9999 BKN020 QNH3010INS 
     BECMG 2623/2624 03009KT 9999 FEW050 QNH3015INS TX14/2612Z TN05/2707Z
       
KSSF 261134Z 2612/2712 04009KT P6SM FEW060 SCT250
       
KSTC 261120Z 2612/2712 00000KT P6SM SCT250 
     FM261600 18007KT P6SM SCT250 
     FM262300 17007KT P6SM BKN040 
     FM271000 17008KT P6SM BKN025
       
KSTL 261120Z 2612/2718 05007KT P6SM SCT045 
     FM270100 11005KT P6SM SKC 
     FM271400 16009KT P6SM SKC
       
KSTS 261206Z 2612/2712 VRB03KT 5SM BR OVC003 
     TEMPO 2612/2615 1/2SM FG 
     FM261500 00000KT 5SM BR SCT005 BKN050 
     FM261700 15003KT P6SM FEW050 
     FM262100 19007KT P6SM BKN050 OVC090 
     FM270700 14004KT P6SM -RA BKN030 OVC050
       
KSUA 261123Z 2612/2712 00000KT P6SM SCT060 
     FM261400 30008KT P6SM SCT040 
     FM262100 05010KT P6SM FEW040 BKN060 
     FM270100 34004KT P6SM FEW060
       
KSUN 261120Z 2612/2718 32009KT P6SM BKN200 
     FM262000 18009KT P6SM SCT040 BKN080 
     FM270300 31008KT P6SM VCSH SCT030 BKN050 
     FM271100 33007KT P6SM -SHRASN SCT025 OVC040 AMD LTD TO CLD VIS AND WIND TIL
261300
       
KSUS 261120Z 2612/2712 04005KT P6SM SCT045 
     FM270100 00000KT P6SM SKC
       
TAF KSUU 261104Z 2611/2717 VRB06KT 9999 BKN020 OVC060 QNH3004INS 
     BECMG 2617/2618 VRB06KT 9999 SCT030 BKN050 QNH3000INS 
     BECMG 2620/2621 21009KT 9999 SCT050 QNH3000INS 
     BECMG 2702/2703 VRB06KT 8000 -SHRA BKN060 QNH2992INS 
     BECMG 2711/2712 16009KT 8000 -SHRA BKN020 OVC040 QNH2988INS TX17/2622Z
TN09/2613Z
       
KSUX 261137Z 2612/2712 14008KT 6SM BR BKN045 
     FM261700 17012G18KT P6SM BKN035 
     FM270000 17011KT P6SM FEW025
       
KSWF 261135Z 2612/2718 02007KT P6SM SKC 
     FM261400 36011G19KT P6SM SKC 
     FM262200 35010KT P6SM SKC 
     FM270200 33005KT P6SM SKC 
     FM270600 VRB03KT P6SM SKC AMD NOT SKED
       
KSYR 261120Z 2612/2712 33008KT P6SM SKC 
     FM270000 VRB03KT P6SM SKC
       
TAF KSZL 261100Z 2611/2717 VRB06KT 9999 BKN025 QNH3021INS 
     BECMG 2616/2617 19012KT 9999 SCT025 QNH3026INS 
     BECMG 2623/2624 17006KT 9999 SCT050 QNH3028INS 
     BECMG 2708/2709 VRB06KT 9999 SCT020 QNH3028INS 
     BECMG 2715/2716 19020G30KT 9999 BKN060 QNH3020INS TX11/2622Z TN03/2613Z